Gala Trio — 3FCR8 — position and weather

sailwx.info

Track history (hours):
 
Tides and Currents Weather Stations Pressure Air Temp Water Temp Dewpoint Dewpoint Depression Visibility Wind Speed Wind Dir Waves Ship Positions

Gala Trio

Last reported at 2018-May-21 10:08 UTC. Time now 2018-May-23 15:13 UTC.
Position N 37°15' E 024°48'.

Length 82 m; draft 4.1 m.

Type: Ship. MMSI: 351300000.

Date/timePositionNaut miles runAvg speedWind from/ knotsBaromVisibWave heightAir tempDewpointWater temp
2018-May-21 10:08N 37°15' E 024°48'1 7.5
2018-May-21 10:00N 37°15' E 024°49'4 7.7
2018-May-21 09:30N 37°18' E 024°52'14 7.7
2018-May-21 07:44N 37°26' E 025°06'2 7.8
2018-May-21 07:28N 37°27' E 025°08'6 8.0
2018-May-21 06:46N 37°31' E 025°14'2 7.9
2018-May-21 06:30N 37°32' E 025°16'12 7.9
2018-May-21 04:55N 37°40' E 025°28'3 7.8
2018-May-21 04:28N 37°43' E 025°31'4 7.7
2018-May-21 03:58N 37°45' E 025°34'  
Track history (hours):
 
Tides and Currents Weather Stations Pressure Air Temp Water Temp Dewpoint Dewpoint Depression Visibility Wind Speed Wind Dir Waves Ship Positions

Gala Trio

Last reported at 2018-May-21 10:08 UTC. Time now 2018-May-23 15:13 UTC.
Position N 37°15' E 024°48'.

Length 82 m; draft 4.1 m.

Type: Ship. MMSI: 351300000.

Date/timePositionNaut miles runAvg speedWind from/ knotsBaromVisibWave heightAir tempDewpointWater temp
2018-May-21 10:08N 37°15' E 024°48'1 7.5
2018-May-21 10:00N 37°15' E 024°49'4 7.7
2018-May-21 09:30N 37°18' E 024°52'14 7.7
2018-May-21 07:44N 37°26' E 025°06'2 7.8
2018-May-21 07:28N 37°27' E 025°08'6 8.0
2018-May-21 06:46N 37°31' E 025°14'2 7.9
2018-May-21 06:30N 37°32' E 025°16'12 7.9
2018-May-21 04:55N 37°40' E 025°28'3 7.8
2018-May-21 04:28N 37°43' E 025°31'4 7.7
2018-May-21 03:58N 37°45' E 025°34'  

Dump ship's entire track history